createdAt,value
2023-01-20T00:01:46.683Z,4.20
2023-01-20T00:04:15.428Z,4.20
2023-01-20T00:06:43.157Z,4.20
2023-01-20T00:09:17.344Z,4.20
2023-01-20T00:11:45.813Z,4.20
2023-01-20T00:14:13.925Z,4.10
2023-01-20T00:16:53.853Z,4.00
2023-01-20T00:19:21.517Z,3.90
2023-01-20T00:21:49.261Z,3.80
2023-01-20T00:24:17.015Z,4.00
2023-01-20T00:26:44.724Z,3.80
2023-01-20T00:29:12.547Z,3.80
2023-01-20T00:31:40.510Z,3.90
2023-01-20T00:34:10.114Z,3.80
2023-01-20T00:36:37.997Z,3.80
2023-01-20T00:39:06.101Z,3.80
2023-01-20T00:41:33.830Z,3.90
2023-01-20T00:44:02.569Z,4.00
2023-01-20T00:46:30.295Z,3.90
2023-01-20T00:48:58.097Z,3.80
2023-01-20T00:51:25.777Z,3.80
2023-01-20T00:53:53.579Z,3.90
2023-01-20T00:56:21.352Z,3.90
2023-01-20T00:58:49.269Z,3.70
2023-01-20T01:01:17.102Z,3.70
2023-01-20T01:03:45.001Z,3.70
2023-01-20T01:06:17.614Z,3.80
2023-01-20T01:08:45.536Z,3.70
2023-01-20T01:11:13.553Z,3.60
2023-01-20T01:13:41.588Z,3.70
2023-01-20T01:16:14.756Z,3.60
2023-01-20T01:18:43.284Z,3.50
2023-01-20T01:21:13.538Z,3.50
2023-01-20T01:23:41.374Z,3.50
2023-01-20T01:26:10.558Z,3.50
2023-01-20T01:28:38.445Z,3.50
2023-01-20T01:31:07.891Z,3.50
2023-01-20T01:33:35.996Z,3.60
2023-01-20T01:36:04.887Z,3.70
2023-01-20T01:38:33.771Z,3.60
2023-01-20T01:41:01.990Z,3.80
2023-01-20T01:43:37.890Z,3.70
2023-01-20T01:46:06.344Z,3.60
2023-01-20T01:48:34.175Z,3.60
2023-01-20T01:51:09.111Z,3.60
2023-01-20T01:53:44.014Z,3.60
2023-01-20T01:56:12.736Z,3.50
2023-01-20T01:58:45.246Z,3.50
2023-01-20T02:01:13.661Z,3.40
2023-01-20T02:04:06.804Z,3.30
2023-01-20T02:06:38.758Z,3.40
2023-01-20T02:09:07.016Z,3.30
2023-01-20T02:11:48.788Z,3.30
2023-01-20T02:14:22.578Z,3.30
2023-01-20T02:17:13.536Z,3.30
2023-01-20T02:20:12.078Z,3.50
2023-01-20T02:23:00.847Z,3.50
2023-01-20T02:26:06.220Z,3.40
2023-01-20T02:28:44.000Z,3.30
2023-01-20T02:31:44.514Z,3.30
2023-01-20T02:34:37.486Z,3.40
2023-01-20T02:37:19.073Z,3.40
2023-01-20T02:40:14.489Z,3.30
2023-01-20T02:42:48.632Z,3.20
2023-01-20T02:45:37.820Z,3.20
2023-01-20T02:48:22.103Z,3.20
2023-01-20T02:51:23.579Z,3.20
2023-01-20T02:53:56.285Z,3.10
2023-01-20T02:56:27.429Z,3.00
2023-01-20T02:59:02.659Z,3.00
2023-01-20T03:01:43.684Z,3.00
2023-01-20T03:04:16.558Z,3.00
2023-01-20T03:06:51.110Z,3.00
2023-01-20T03:09:25.536Z,2.90
2023-01-20T03:12:04.462Z,2.90
2023-01-20T03:14:32.211Z,2.80
2023-01-20T03:17:00.173Z,2.90
2023-01-20T03:19:28.170Z,3.10
2023-01-20T03:21:57.581Z,3.20
2023-01-20T03:24:29.263Z,3.40
2023-01-20T03:26:57.000Z,3.30
2023-01-20T03:29:24.757Z,3.20
2023-01-20T03:32:01.319Z,3.00
2023-01-20T03:34:33.503Z,2.80
2023-01-20T03:37:02.507Z,3.00
2023-01-20T03:39:33.509Z,3.10
2023-01-20T03:42:10.312Z,3.20
2023-01-20T03:45:09.060Z,3.20
2023-01-20T03:48:04.567Z,3.30
2023-01-20T03:51:21.983Z,3.10
2023-01-20T03:53:55.875Z,3.10
2023-01-20T03:56:45.986Z,3.00
2023-01-20T03:59:16.339Z,2.70
2023-01-20T04:01:45.275Z,2.90
2023-01-20T04:04:17.249Z,3.00
2023-01-20T04:06:47.112Z,3.00
2023-01-20T04:09:20.521Z,2.90
2023-01-20T04:11:49.723Z,2.70
2023-01-20T04:14:17.446Z,2.70
2023-01-20T04:16:56.778Z,2.60
2023-01-20T04:19:25.804Z,2.80
2023-01-20T04:22:05.727Z,2.90
2023-01-20T04:24:54.669Z,3.00
2023-01-20T04:27:22.428Z,3.20
2023-01-20T04:29:50.203Z,3.20
2023-01-20T04:32:17.939Z,3.20
2023-01-20T04:34:45.695Z,3.20
2023-01-20T04:37:13.387Z,3.10
2023-01-20T04:39:41.112Z,2.80
2023-01-20T04:42:10.849Z,2.90
2023-01-20T04:44:43.069Z,3.00
2023-01-20T04:47:10.820Z,3.00
2023-01-20T04:49:43.093Z,2.90
2023-01-20T04:52:10.870Z,2.90
2023-01-20T04:54:38.666Z,2.80
2023-01-20T04:57:07.053Z,2.80
2023-01-20T04:59:34.984Z,2.80
2023-01-20T05:02:02.695Z,2.70
2023-01-20T05:04:30.624Z,2.60
2023-01-20T05:06:58.319Z,2.60
2023-01-20T05:09:26.071Z,2.60
2023-01-20T05:11:54.917Z,2.50
2023-01-20T05:14:22.727Z,2.60
2023-01-20T05:16:50.451Z,2.50
2023-01-20T05:19:18.125Z,2.50
2023-01-20T05:21:45.870Z,2.50
2023-01-20T05:24:13.509Z,2.50
2023-01-20T05:26:41.205Z,2.50
2023-01-20T05:29:09.413Z,2.80
2023-01-20T05:31:38.786Z,2.70
2023-01-20T05:34:06.441Z,2.60
2023-01-20T05:36:34.115Z,2.70
2023-01-20T05:39:01.888Z,2.70
2023-01-20T05:41:29.537Z,2.60
2023-01-20T05:43:58.165Z,2.60
2023-01-20T05:46:25.898Z,2.50
2023-01-20T05:48:53.616Z,2.50
2023-01-20T05:51:21.435Z,2.60
2023-01-20T05:53:49.108Z,2.70
2023-01-20T05:56:16.755Z,2.60
2023-01-20T05:58:44.412Z,2.70
2023-01-20T06:01:14.587Z,2.60
2023-01-20T06:03:42.834Z,2.70
2023-01-20T06:06:15.684Z,2.70
2023-01-20T06:08:44.329Z,2.70
2023-01-20T06:11:14.500Z,2.70
2023-01-20T06:13:42.209Z,2.60
2023-01-20T06:16:09.913Z,2.60
2023-01-20T06:18:37.797Z,2.60
2023-01-20T06:21:05.901Z,2.60
2023-01-20T06:23:33.700Z,2.50
2023-01-20T06:26:02.698Z,2.40
2023-01-20T06:28:31.033Z,2.50
2023-01-20T06:31:04.267Z,2.40
2023-01-20T06:33:34.611Z,2.40
2023-01-20T06:36:02.672Z,2.30
2023-01-20T06:38:33.056Z,2.40
2023-01-20T06:41:06.605Z,2.40
2023-01-20T06:43:35.317Z,2.40
2023-01-20T06:46:08.063Z,2.50
2023-01-20T06:48:36.651Z,2.50
2023-01-20T06:51:06.845Z,2.60
2023-01-20T06:53:34.913Z,2.60
2023-01-20T06:56:02.973Z,2.50
2023-01-20T06:58:31.811Z,2.50
2023-01-20T07:01:08.955Z,2.50
2023-01-20T07:03:37.506Z,2.50
2023-01-20T07:06:30.801Z,2.60
2023-01-20T07:09:00.200Z,2.60
2023-01-20T07:11:29.066Z,2.60
2023-01-20T07:13:56.693Z,2.70
2023-01-20T07:16:24.892Z,2.90
2023-01-20T07:18:53.732Z,2.90
2023-01-20T07:21:24.578Z,2.90
2023-01-20T07:23:55.460Z,3.00
2023-01-20T07:26:26.690Z,2.90
2023-01-20T07:28:54.514Z,2.90
2023-01-20T07:31:24.635Z,3.00
2023-01-20T07:33:54.330Z,3.20
2023-01-20T07:36:22.316Z,3.30
2023-01-20T07:38:51.404Z,3.20
2023-01-20T07:41:20.369Z,3.30
2023-01-20T07:43:50.187Z,3.40
2023-01-20T07:46:18.537Z,3.50
2023-01-20T07:48:46.609Z,3.50
2023-01-20T07:51:16.186Z,3.60
2023-01-20T07:53:47.224Z,3.60
2023-01-20T07:56:23.410Z,3.60
2023-01-20T07:58:51.777Z,3.60
2023-01-20T08:01:26.412Z,3.80
2023-01-20T08:03:54.272Z,3.90
2023-01-20T08:06:24.238Z,3.80
2023-01-20T08:09:02.521Z,3.80
2023-01-20T08:11:32.337Z,3.80
2023-01-20T08:14:00.128Z,3.90
2023-01-20T08:16:27.875Z,3.90
2023-01-20T08:18:56.153Z,3.90
2023-01-20T08:21:32.017Z,4.10
2023-01-20T08:24:02.107Z,4.10
2023-01-20T08:26:30.575Z,4.30
2023-01-20T08:29:08.424Z,4.40
2023-01-20T08:31:37.098Z,4.40
2023-01-20T08:34:05.537Z,4.40
2023-01-20T08:36:37.173Z,4.50
2023-01-20T08:39:07.378Z,4.50
2023-01-20T08:41:38.062Z,4.60
2023-01-20T08:44:07.905Z,4.60
2023-01-20T08:46:44.936Z,4.50
2023-01-20T08:49:16.128Z,4.50
2023-01-20T08:51:45.138Z,4.60
2023-01-20T08:54:14.761Z,4.50
2023-01-20T08:56:42.458Z,4.50
2023-01-20T08:59:11.469Z,4.60
2023-01-20T09:01:39.473Z,4.70
2023-01-20T09:04:07.803Z,4.80
2023-01-20T09:06:47.224Z,4.90
2023-01-20T09:09:19.816Z,5.00
2023-01-20T09:11:51.505Z,5.20
2023-01-20T09:14:24.690Z,5.20
2023-01-20T09:16:52.720Z,5.30
2023-01-20T09:19:20.453Z,5.40
2023-01-20T09:21:48.190Z,5.40
2023-01-20T09:24:16.113Z,5.50
2023-01-20T09:26:44.932Z,5.50
2023-01-20T09:29:14.823Z,5.60
2023-01-20T09:31:52.427Z,5.70
2023-01-20T09:34:24.782Z,5.80
2023-01-20T09:36:55.538Z,6.00
2023-01-20T09:39:42.677Z,6.10
2023-01-20T09:43:06.999Z,6.20
2023-01-20T09:45:53.167Z,6.40
2023-01-20T09:49:00.008Z,6.60
2023-01-20T09:52:18.330Z,6.60
2023-01-20T09:54:51.780Z,6.70
2023-01-20T09:57:22.072Z,6.70
2023-01-20T10:00:09.576Z,6.70
2023-01-20T10:02:39.079Z,6.70
2023-01-20T10:05:19.921Z,6.60
2023-01-20T10:07:56.700Z,6.70
2023-01-20T10:10:37.448Z,6.70
2023-01-20T10:13:16.695Z,6.80
2023-01-20T10:15:49.751Z,6.80
2023-01-20T10:18:25.350Z,6.80
2023-01-20T10:21:14.703Z,6.90
2023-01-20T10:23:43.140Z,6.90
2023-01-20T10:26:21.449Z,7.00
2023-01-20T10:29:04.119Z,7.00
2023-01-20T10:31:35.824Z,7.20
2023-01-20T10:34:12.813Z,7.20
2023-01-20T10:36:44.430Z,7.30
2023-01-20T10:39:29.310Z,7.20
2023-01-20T10:42:04.630Z,7.20
2023-01-20T10:44:35.818Z,7.20
2023-01-20T10:47:15.506Z,7.20
2023-01-20T10:50:01.884Z,7.20
2023-01-20T10:52:54.445Z,7.30
2023-01-20T10:55:46.746Z,7.40
2023-01-20T10:58:23.907Z,7.40
2023-01-20T11:00:52.355Z,7.50
2023-01-20T11:03:22.319Z,7.50
2023-01-20T11:05:51.858Z,7.50
2023-01-20T11:08:30.078Z,7.50
2023-01-20T11:11:01.190Z,7.50
2023-01-20T11:13:30.031Z,7.60
2023-01-20T11:16:02.716Z,7.70
2023-01-20T11:18:32.211Z,7.90
2023-01-20T11:21:13.716Z,8.10
2023-01-20T11:23:57.865Z,8.20
2023-01-20T11:26:35.976Z,8.30
2023-01-20T11:29:28.826Z,8.30
2023-01-20T11:31:58.290Z,8.30
2023-01-20T11:34:35.737Z,8.50
2023-01-20T11:37:06.530Z,8.70
2023-01-20T11:39:44.818Z,8.80
2023-01-20T11:42:27.624Z,8.90
2023-01-20T11:45:19.764Z,9.00
2023-01-20T11:48:06.936Z,9.10
2023-01-20T11:50:39.650Z,9.20
2023-01-20T11:53:21.524Z,9.20
2023-01-20T11:56:00.628Z,9.20
2023-01-20T11:58:32.629Z,9.20
2023-01-20T12:01:28.645Z,9.10
2023-01-20T12:04:26.750Z,9.10
2023-01-20T12:07:02.863Z,9.10
2023-01-20T12:09:37.484Z,9.00
2023-01-20T12:12:26.362Z,9.00
2023-01-20T12:15:26.787Z,9.20
2023-01-20T12:18:09.681Z,9.50
2023-01-20T12:21:08.319Z,9.90
2023-01-20T12:24:07.912Z,9.90
2023-01-20T12:26:36.374Z,9.90
2023-01-20T12:29:15.915Z,9.60
2023-01-20T12:31:45.603Z,9.90
2023-01-20T12:34:16.386Z,9.90
2023-01-20T12:37:22.742Z,9.70
2023-01-20T12:40:09.310Z,9.80
2023-01-20T12:42:55.830Z,9.90
2023-01-20T12:45:45.003Z,10.00
2023-01-20T12:48:16.777Z,10.10
2023-01-20T12:51:11.488Z,10.10
2023-01-20T12:53:52.354Z,9.90
2023-01-20T12:56:35.249Z,9.50
2023-01-20T12:59:41.164Z,9.70
2023-01-20T13:02:50.534Z,9.80
2023-01-20T13:05:47.757Z,10.00
2023-01-20T13:08:42.285Z,10.10
2023-01-20T13:11:10.032Z,10.10
2023-01-20T13:13:56.894Z,10.00
2023-01-20T13:16:42.680Z,10.10
2023-01-20T13:19:29.882Z,10.10
2023-01-20T13:22:08.479Z,10.10
2023-01-20T13:24:37.044Z,10.20
2023-01-20T13:27:04.928Z,10.00
2023-01-20T13:29:53.029Z,10.10
2023-01-20T13:32:45.348Z,9.90
2023-01-20T13:35:18.951Z,10.00
2023-01-20T13:37:52.735Z,9.90
2023-01-20T13:40:38.807Z,9.80
2023-01-20T13:43:27.707Z,9.90
2023-01-20T13:46:07.460Z,9.80
2023-01-20T13:48:37.205Z,9.80
2023-01-20T13:51:16.985Z,9.60
2023-01-20T13:53:44.859Z,9.60
2023-01-20T13:56:30.564Z,9.80
2023-01-20T13:58:58.444Z,9.80
2023-01-20T14:01:28.218Z,9.80
2023-01-20T14:04:15.847Z,9.70
2023-01-20T14:06:48.926Z,9.70
2023-01-20T14:09:21.188Z,9.60
2023-01-20T14:11:57.005Z,9.50
2023-01-20T14:14:27.153Z,9.50
2023-01-20T14:17:04.309Z,9.40
2023-01-20T14:19:35.583Z,9.30
2023-01-20T14:22:17.810Z,9.10
2023-01-20T14:24:48.235Z,9.00
2023-01-20T14:27:19.486Z,8.80
2023-01-20T14:29:51.094Z,8.70
2023-01-20T14:32:26.085Z,8.60
2023-01-20T14:34:54.483Z,8.60
2023-01-20T14:37:34.815Z,8.50
2023-01-20T14:40:11.986Z,8.50
2023-01-20T14:42:40.107Z,8.30
2023-01-20T14:45:21.090Z,8.00
2023-01-20T14:47:49.718Z,8.10
2023-01-20T14:50:19.023Z,8.00
2023-01-20T14:52:47.559Z,7.90
2023-01-20T14:55:43.440Z,7.80
2023-01-20T14:58:18.301Z,7.80
2023-01-20T15:00:47.937Z,7.80
2023-01-20T15:03:27.557Z,7.60
2023-01-20T15:05:56.744Z,7.50
2023-01-20T15:08:56.759Z,7.40
2023-01-20T15:11:33.154Z,7.60
2023-01-20T15:14:12.986Z,7.50
2023-01-20T15:16:44.862Z,7.50
2023-01-20T15:19:15.705Z,7.30
2023-01-20T15:21:45.911Z,7.20
2023-01-20T15:24:30.380Z,7.20
2023-01-20T15:27:00.880Z,7.30
2023-01-20T15:29:34.240Z,7.40
2023-01-20T15:32:12.667Z,7.30
2023-01-20T15:34:40.412Z,7.30
2023-01-20T15:37:26.281Z,7.10
2023-01-20T15:39:54.476Z,7.00
2023-01-20T15:42:24.614Z,6.90
2023-01-20T15:44:52.364Z,6.90
2023-01-20T15:47:29.566Z,6.90
2023-01-20T15:49:59.241Z,6.90
2023-01-20T15:52:27.051Z,7.10
2023-01-20T15:54:55.875Z,7.00
2023-01-20T15:57:23.738Z,6.90
2023-01-20T15:59:51.473Z,6.80
2023-01-20T16:02:21.110Z,6.70
2023-01-20T16:04:49.646Z,6.60
2023-01-20T16:07:19.931Z,6.50
2023-01-20T16:09:48.081Z,6.40
2023-01-20T16:12:19.402Z,6.40
2023-01-20T16:14:47.074Z,6.30
2023-01-20T16:17:19.291Z,6.40
2023-01-20T16:19:47.890Z,6.30
2023-01-20T16:22:16.037Z,6.30
2023-01-20T16:24:44.188Z,6.20
2023-01-20T16:27:22.798Z,6.20
2023-01-20T16:29:50.896Z,6.10
2023-01-20T16:32:22.510Z,6.10
2023-01-20T16:34:50.363Z,6.20
2023-01-20T16:37:18.270Z,6.40
2023-01-20T16:39:49.115Z,6.20
2023-01-20T16:42:17.126Z,6.00
2023-01-20T16:44:44.804Z,5.90
2023-01-20T16:47:12.535Z,5.90
2023-01-20T16:49:40.235Z,5.80
2023-01-20T16:52:07.954Z,5.80
2023-01-20T16:54:35.677Z,5.80
2023-01-20T16:57:03.458Z,5.90
2023-01-20T16:59:31.243Z,5.90
2023-01-20T17:02:00.087Z,5.90
2023-01-20T17:04:27.804Z,5.80
2023-01-20T17:06:55.615Z,5.80
2023-01-20T17:09:23.454Z,5.90
2023-01-20T17:11:51.076Z,6.00
2023-01-20T17:14:18.755Z,5.90
2023-01-20T17:16:46.689Z,5.80
2023-01-20T17:19:16.826Z,5.70
2023-01-20T17:21:45.697Z,5.60
2023-01-20T17:24:13.428Z,5.50
2023-01-20T17:26:41.552Z,5.50
2023-01-20T17:29:11.145Z,5.50
2023-01-20T17:31:40.452Z,5.40
2023-01-20T17:34:09.571Z,5.40
2023-01-20T17:36:39.041Z,5.60
2023-01-20T17:39:07.665Z,5.70
2023-01-20T17:41:35.359Z,5.60
2023-01-20T17:44:04.267Z,5.50
2023-01-20T17:46:32.053Z,5.50
2023-01-20T17:49:01.774Z,5.70
2023-01-20T17:51:30.050Z,5.60
2023-01-20T17:53:58.748Z,5.50
2023-01-20T17:56:26.601Z,5.50
2023-01-20T17:58:54.418Z,5.50
2023-01-20T18:01:25.092Z,5.40
2023-01-20T18:03:55.325Z,5.60
2023-01-20T18:06:24.360Z,5.70
2023-01-20T18:08:54.284Z,5.80
2023-01-20T18:11:24.135Z,5.90
2023-01-20T18:13:53.556Z,6.00
2023-01-20T18:16:23.209Z,5.90
2023-01-20T18:18:51.263Z,5.70
2023-01-20T18:21:21.638Z,5.70
2023-01-20T18:23:50.606Z,5.80
2023-01-20T18:26:23.203Z,5.80
2023-01-20T18:28:54.603Z,5.70
2023-01-20T18:31:23.867Z,5.70
2023-01-20T18:34:00.785Z,5.60
2023-01-20T18:36:31.472Z,5.60
2023-01-20T18:39:05.892Z,5.70
2023-01-20T18:41:37.380Z,5.60
2023-01-20T18:44:06.475Z,5.60
2023-01-20T18:46:34.635Z,5.70
2023-01-20T18:49:02.701Z,5.70
2023-01-20T18:51:31.172Z,5.70
2023-01-20T18:54:02.112Z,5.80
2023-01-20T18:56:30.302Z,5.60
2023-01-20T18:58:58.363Z,5.50
2023-01-20T19:01:29.387Z,5.50
2023-01-20T19:03:57.768Z,5.50
2023-01-20T19:06:28.325Z,5.50
2023-01-20T19:08:58.373Z,5.60
2023-01-20T19:11:29.055Z,5.60
2023-01-20T19:13:57.197Z,5.60
2023-01-20T19:16:38.027Z,5.50
2023-01-20T19:19:07.295Z,5.50
2023-01-20T19:21:36.642Z,5.50
2023-01-20T19:24:11.025Z,5.50
2023-01-20T19:26:39.457Z,5.20
2023-01-20T19:29:10.408Z,5.00
2023-01-20T19:31:39.889Z,5.10
2023-01-20T19:34:09.293Z,5.00
2023-01-20T19:36:37.686Z,5.00
2023-01-20T19:39:07.539Z,4.90
2023-01-20T19:41:36.375Z,4.80
2023-01-20T19:44:06.908Z,4.70
2023-01-20T19:46:37.340Z,4.70
2023-01-20T19:49:05.369Z,4.70
2023-01-20T19:51:33.272Z,4.80
2023-01-20T19:54:01.863Z,4.70
2023-01-20T19:56:32.659Z,4.90
2023-01-20T19:59:01.584Z,4.90
2023-01-20T20:01:34.585Z,4.80
2023-01-20T20:04:08.348Z,4.80
2023-01-20T20:06:39.295Z,4.70
2023-01-20T20:09:12.723Z,4.50
2023-01-20T20:11:40.907Z,4.30
2023-01-20T20:14:11.927Z,4.20
2023-01-20T20:16:41.002Z,4.20
2023-01-20T20:19:11.039Z,4.30
2023-01-20T20:21:38.873Z,4.40
2023-01-20T20:24:07.113Z,4.30
2023-01-20T20:26:36.707Z,4.30
2023-01-20T20:29:07.097Z,4.40
2023-01-20T20:31:37.680Z,4.40
2023-01-20T20:34:07.120Z,4.40
2023-01-20T20:36:35.389Z,4.40
2023-01-20T20:39:05.054Z,4.40
2023-01-20T20:41:35.355Z,4.30
2023-01-20T20:44:03.697Z,4.10
2023-01-20T20:46:31.516Z,4.00
2023-01-20T20:49:01.162Z,4.00
2023-01-20T20:51:31.924Z,4.00
2023-01-20T20:54:02.270Z,4.10
2023-01-20T20:56:33.645Z,4.10
2023-01-20T20:59:03.904Z,4.20
2023-01-20T21:01:33.602Z,4.10
2023-01-20T21:04:03.339Z,4.10
2023-01-20T21:06:31.989Z,4.10
2023-01-20T21:09:00.472Z,4.10
2023-01-20T21:11:28.570Z,4.00
2023-01-20T21:13:56.622Z,3.90
2023-01-20T21:16:25.860Z,3.90
2023-01-20T21:18:56.409Z,3.90
2023-01-20T21:21:25.190Z,3.90
2023-01-20T21:23:55.265Z,3.70
2023-01-20T21:26:25.502Z,3.70
2023-01-20T21:28:54.257Z,3.70
2023-01-20T21:31:26.673Z,3.70
2023-01-20T21:34:00.634Z,3.60
2023-01-20T21:36:29.662Z,3.60
2023-01-20T21:38:59.158Z,3.70
2023-01-20T21:41:26.774Z,3.80
2023-01-20T21:44:12.984Z,3.90
2023-01-20T21:46:40.898Z,3.90
2023-01-20T21:49:27.692Z,3.90
2023-01-20T21:52:14.360Z,3.70
2023-01-20T21:54:42.350Z,3.70
2023-01-20T21:57:10.109Z,3.60
2023-01-20T21:59:38.276Z,3.50
2023-01-20T22:02:06.340Z,3.50
2023-01-20T22:04:34.176Z,3.50
2023-01-20T22:07:03.000Z,3.40
2023-01-20T22:09:30.650Z,3.40
2023-01-20T22:11:58.475Z,3.40
2023-01-20T22:14:26.347Z,3.40
2023-01-20T22:16:54.085Z,3.40
2023-01-20T22:19:21.838Z,3.50
2023-01-20T22:21:49.590Z,3.50
2023-01-20T22:24:17.887Z,3.50
2023-01-20T22:26:49.763Z,3.50
2023-01-20T22:29:18.194Z,3.40
2023-01-20T22:31:46.940Z,3.50
2023-01-20T22:34:14.679Z,3.50
2023-01-20T22:36:42.369Z,3.40
2023-01-20T22:39:11.989Z,3.30
2023-01-20T22:41:39.948Z,3.30
2023-01-20T22:44:08.207Z,3.20
2023-01-20T22:46:36.270Z,3.20
2023-01-20T22:49:03.958Z,3.20
2023-01-20T22:51:32.466Z,3.10
2023-01-20T22:54:01.435Z,3.00
2023-01-20T22:56:32.412Z,3.10
2023-01-20T22:59:00.786Z,3.20
2023-01-20T23:01:34.168Z,3.20
2023-01-20T23:04:04.600Z,3.10
2023-01-20T23:06:34.565Z,3.10
2023-01-20T23:09:05.540Z,3.20
2023-01-20T23:11:34.349Z,3.30
2023-01-20T23:14:01.961Z,3.40
2023-01-20T23:16:29.736Z,3.50
2023-01-20T23:18:57.337Z,3.50
2023-01-20T23:21:25.008Z,3.30
2023-01-20T23:23:55.068Z,3.20
2023-01-20T23:26:25.672Z,3.20
2023-01-20T23:29:18.801Z,3.10
2023-01-20T23:31:46.520Z,2.90
2023-01-20T23:34:14.213Z,3.00
2023-01-20T23:36:42.008Z,2.80
2023-01-20T23:39:10.023Z,2.90
2023-01-20T23:41:37.825Z,3.00
2023-01-20T23:44:05.739Z,2.80
2023-01-20T23:46:33.348Z,2.60
2023-01-20T23:49:01.114Z,2.80
2023-01-20T23:51:28.804Z,2.90
2023-01-20T23:53:57.005Z,2.90
2023-01-20T23:56:25.769Z,2.90
2023-01-20T23:58:53.398Z,2.80
